Time;durP1;ratioP1;P1;durP2;ratioP2;P2;SDS_P1;SDS_P2;PMS_P1;PMS_P2;Temp;Humidity;BMP_temperature;BMP_pressure;BME280_temperature;BME280_humidity;BME280_pressure;Samples;Min_cycle;Max_cycle;Signal;HPM_P1;HPM_P2
2023/12/27 00:02:12;;;;;;;23.80;9.82;;;;;;;2.70;100.00;101833.44;6305317;22;20004;-80
2023/12/27 00:04:39;;;;;;;19.88;9.35;;;;;;;2.67;100.00;101831.09;6278027;22;20011;-80
2023/12/27 00:07:04;;;;;;;18.80;9.13;;;;;;;2.72;100.00;101834.13;6277936;22;20513;-80
2023/12/27 00:09:29;;;;;;;21.58;9.10;;;;;;;2.78;100.00;101823.03;6305629;22;20011;-80
2023/12/27 00:11:55;;;;;;;24.67;9.70;;;;;;;2.84;100.00;101818.97;6278094;22;20033;-80
2023/12/27 00:14:20;;;;;;;16.52;7.65;;;;;;;2.78;100.00;101809.81;6277810;22;20011;-80
2023/12/27 00:16:45;;;;;;;20.63;9.48;;;;;;;2.79;100.00;101811.47;6277836;22;20337;-80
2023/12/27 00:19:11;;;;;;;16.55;8.73;;;;;;;2.78;100.00;101811.63;6277567;22;20424;-81
2023/12/27 00:21:36;;;;;;;18.63;8.88;;;;;;;2.87;100.00;101816.06;6305052;22;20332;-81
2023/12/27 00:24:02;;;;;;;22.55;9.93;;;;;;;2.94;100.00;101821.63;6277996;22;20033;-80
2023/12/27 00:26:27;;;;;;;24.10;9.52;;;;;;;2.93;100.00;101804.13;6305173;22;20011;-79
2023/12/27 00:28:52;;;;;;;27.05;9.98;;;;;;;3.04;100.00;101820.66;6277585;22;20018;-79
2023/12/27 00:31:18;;;;;;;20.88;11.30;;;;;;;3.08;100.00;101811.47;6304938;22;20011;-80
2023/12/27 00:33:43;;;;;;;25.58;11.55;;;;;;;3.26;100.00;101822.16;6305081;22;20062;-80
2023/12/27 00:36:09;;;;;;;23.70;11.27;;;;;;;3.32;100.00;101820.75;6305069;22;20011;-81
2023/12/27 00:38:37;;;;;;;24.52;11.10;;;;;;;3.29;100.00;101802.53;6304902;22;20004;-81
2023/12/27 00:41:04;;;;;;;30.60;12.40;;;;;;;3.30;100.00;101799.75;6277496;22;20010;-80
2023/12/27 00:43:29;;;;;;;23.45;10.25;;;;;;;3.35;100.00;101812.53;6304876;22;20009;-80
2023/12/27 00:45:54;;;;;;;18.10;9.75;;;;;;;3.27;100.00;101796.56;6304836;22;20332;-79
2023/12/27 00:48:20;;;;;;;22.92;10.77;;;;;;;3.29;100.00;101806.00;6277533;22;20011;-80
2023/12/27 00:50:45;;;;;;;17.73;8.77;;;;;;;3.23;100.00;101793.38;6306351;22;20018;-79
2023/12/27 00:53:10;;;;;;;19.35;9.45;;;;;;;3.19;100.00;101799.09;6306289;22;20007;-80
2023/12/27 00:55:36;;;;;;;18.77;7.55;;;;;;;3.13;100.00;101800.47;6278960;22;20008;-79
2023/12/27 00:58:02;;;;;;;24.73;10.95;;;;;;;3.11;100.00;101808.53;6306986;22;20074;-80
2023/12/27 01:00:27;;;;;;;25.27;10.52;;;;;;;3.10;100.00;101808.69;6306229;22;20003;-81
2023/12/27 01:02:52;;;;;;;25.30;10.75;;;;;;;3.05;100.00;101802.97;6279251;22;20435;-80
2023/12/27 01:05:18;;;;;;;25.67;11.23;;;;;;;3.06;100.00;101805.47;6306294;22;20477;-80
2023/12/27 01:07:43;;;;;;;28.10;12.05;;;;;;;3.04;100.00;101798.69;6306328;22;20014;-80
2023/12/27 01:10:08;;;;;;;29.20;11.95;;;;;;;3.02;100.00;101787.41;6306317;22;20086;-81
2023/12/27 01:12:34;;;;;;;26.65;9.90;;;;;;;3.03;100.00;101787.28;6306465;22;20007;-81
2023/12/27 01:14:59;;;;;;;25.63;10.13;;;;;;;3.04;100.00;101782.81;6278845;22;20005;-80
2023/12/27 01:17:24;;;;;;;32.40;10.38;;;;;;;3.04;100.00;101786.31;6306249;22;20007;-80
2023/12/27 01:19:50;;;;;;;19.48;10.10;;;;;;;3.02;100.00;101790.91;6306218;22;20421;-80
2023/12/27 01:22:15;;;;;;;18.50;9.40;;;;;;;2.98;100.00;101781.59;6278760;22;20068;-80
2023/12/27 01:24:40;;;;;;;18.60;8.95;;;;;;;2.93;100.00;101785.63;6306340;22;20057;-80
2023/12/27 01:27:06;;;;;;;22.42;10.20;;;;;;;2.87;100.00;101778.25;6306385;22;20003;-80
2023/12/27 01:29:31;;;;;;;17.55;10.05;;;;;;;2.79;100.00;101768.41;6306253;22;20028;-80
2023/12/27 01:31:56;;;;;;;26.88;13.10;;;;;;;2.80;100.00;101773.53;6306164;22;20094;-80
2023/12/27 01:34:21;;;;;;;21.77;12.10;;;;;;;2.80;100.00;101772.69;6306234;22;20014;-81
2023/12/27 01:36:47;;;;;;;26.33;12.77;;;;;;;2.80;100.00;101772.69;6306168;22;20076;-79
2023/12/27 01:39:12;;;;;;;25.10;12.23;;;;;;;2.77;100.00;101776.47;6306133;22;20485;-80
2023/12/27 01:41:37;;;;;;;27.08;12.93;;;;;;;2.82;100.00;101783.13;6305987;22;20007;-80
2023/12/27 01:44:03;;;;;;;25.38;13.35;;;;;;;2.78;100.00;101785.22;6278636;22;20014;-80
2023/12/27 01:46:30;;;;;;;26.60;13.52;;;;;;;2.79;100.00;101786.88;6306113;22;20442;-80
2023/12/27 01:48:56;;;;;;;22.27;12.25;;;;;;;2.75;100.00;101786.31;6278673;22;20069;-80
2023/12/27 01:51:22;;;;;;;26.38;11.85;;;;;;;2.80;100.00;101797.31;6306048;22;20014;-80
2023/12/27 01:53:47;;;;;;;26.45;12.07;;;;;;;2.82;100.00;101791.88;6278551;22;20012;-80
2023/12/27 01:56:13;;;;;;;23.92;12.43;;;;;;;2.80;100.00;101791.19;6306036;22;20007;-80
2023/12/27 01:58:38;;;;;;;31.15;14.38;;;;;;;2.78;100.00;101786.03;6306122;22;20014;-81
2023/12/27 02:01:03;;;;;;;29.70;12.98;;;;;;;2.84;100.00;101794.38;6277735;22;20003;-77
2023/12/27 02:04:28;;;;;;;22.73;12.50;;;;;;;2.85;100.00;101791.59;6306124;22;20013;-80
2023/12/27 02:06:54;;;;;;;24.83;13.23;;;;;;;2.86;100.00;101779.22;6278475;22;20018;-79
2023/12/27 02:09:19;;;;;;;25.38;11.07;;;;;;;2.83;100.00;101779.50;6305979;22;20496;-81
2023/12/27 02:11:45;;;;;;;21.70;11.27;;;;;;;2.87;100.00;101788.81;6306052;22;20014;-81
2023/12/27 02:14:10;;;;;;;21.15;10.95;;;;;;;2.87;100.00;101770.31;6306063;22;20011;-80
2023/12/27 02:16:37;;;;;;;19.50;11.35;;;;;;;2.90;100.00;101776.19;6305895;22;19999;-80
2023/12/27 02:19:05;;;;;;;23.65;10.68;;;;;;;2.94;100.00;101774.09;6305868;22;20049;-81
2023/12/27 02:21:32;;;;;;;23.20;11.73;;;;;;;2.99;100.00;101782.41;6304131;22;20011;-80
2023/12/27 02:24:00;;;;;;;22.77;11.38;;;;;;;2.99;100.00;101772.69;6305768;22;20037;-80
2023/12/27 02:26:26;;;;;;;24.65;10.35;;;;;;;3.05;100.00;101773.91;6305752;22;20002;-80
2023/12/27 02:28:51;;;;;;;26.52;11.00;;;;;;;3.03;100.00;101762.66;6305875;22;20436;-81
2023/12/27 02:31:16;;;;;;;30.92;13.13;;;;;;;3.04;100.00;101759.03;6278514;22;20011;-80
2023/12/27 02:33:45;;;;;;;24.23;11.38;;;;;;;3.08;100.00;101758.63;6305953;22;20008;-80
2023/12/27 02:36:11;;;;;;;24.08;10.48;;;;;;;3.06;100.00;101757.09;6305827;22;20053;-80
2023/12/27 02:38:36;;;;;;;23.38;9.93;;;;;;;3.07;100.00;101764.03;6305888;22;20007;-80
2023/12/27 02:41:04;;;;;;;23.30;11.23;;;;;;;3.07;100.00;101759.59;6305751;22;20003;-81
2023/12/27 02:43:30;;;;;;;24.27;11.30;;;;;;;3.06;100.00;101762.38;6305908;22;20007;-81
2023/12/27 02:45:55;;;;;;;26.70;12.82;;;;;;;3.04;100.00;101759.88;6305853;22;20007;-80
2023/12/27 02:48:20;;;;;;;17.23;10.20;;;;;;;3.05;100.00;101758.06;6305829;22;20010;-79
2023/12/27 02:50:46;;;;;;;26.35;10.88;;;;;;;2.97;100.00;101734.19;6305855;22;20007;-80
2023/12/27 02:53:11;;;;;;;23.73;11.18;;;;;;;3.00;100.00;101731.25;6305788;22;20003;-79
2023/12/27 02:55:37;;;;;;;20.67;11.50;;;;;;;2.99;100.00;101726.94;6305846;22;20417;-80
2023/12/27 02:58:03;;;;;;;25.33;12.13;;;;;;;3.02;100.00;101730.13;6278450;22;20038;-79
2023/12/27 03:00:34;;;;;;;21.77;11.90;;;;;;;3.03;100.00;101717.75;6305879;22;20388;-79
2023/12/27 03:03:00;;;;;;;19.48;10.82;;;;;;;2.98;100.00;101704.97;6278539;22;20340;-82
2023/12/27 03:05:25;;;;;;;23.05;11.52;;;;;;;3.12;100.00;101722.16;6278256;22;20004;-81
2023/12/27 03:07:51;;;;;;;26.45;10.43;;;;;;;3.15;100.00;101713.94;6305669;22;20090;-81
2023/12/27 03:10:16;;;;;;;24.33;10.35;;;;;;;3.16;100.00;101715.63;6305564;22;20003;-81
2023/12/27 03:12:41;;;;;;;26.27;10.60;;;;;;;3.22;100.00;101709.78;6305363;22;20011;-81
2023/12/27 03:15:07;;;;;;;23.73;10.40;;;;;;;3.23;100.00;101711.44;6305616;22;20006;-81
2023/12/27 03:17:32;;;;;;;20.88;9.90;;;;;;;3.24;100.00;101699.06;6305734;22;20427;-80
2023/12/27 03:19:58;;;;;;;24.45;11.48;;;;;;;3.27;100.00;101702.25;6277956;22;20145;-80
2023/12/27 03:22:23;;;;;;;22.38;10.63;;;;;;;3.25;100.00;101688.34;6305778;22;20069;-80
2023/12/27 03:24:48;;;;;;;27.48;12.30;;;;;;;3.33;100.00;101691.09;6278257;22;20010;-79
2023/12/27 03:27:14;;;;;;;25.85;10.55;;;;;;;3.32;100.00;101678.84;6278229;22;20003;-80
2023/12/27 03:29:39;;;;;;;21.67;10.85;;;;;;;3.37;100.00;101678.41;6305526;22;20033;-80
2023/12/27 03:32:05;;;;;;;23.83;12.07;;;;;;;3.35;100.00;101670.63;6305567;22;20073;-80
2023/12/27 03:34:30;;;;;;;27.75;11.77;;;;;;;3.34;100.00;101668.97;6278410;22;20052;-81
2023/12/27 03:36:55;;;;;;;22.90;10.45;;;;;;;3.34;100.00;101673.41;6305730;22;20468;-80
2023/12/27 03:39:21;;;;;;;19.10;10.00;;;;;;;3.36;100.00;101666.16;6278202;22;20010;-79
2023/12/27 03:41:46;;;;;;;21.13;9.80;;;;;;;3.36;100.00;101668.81;6305436;22;20008;-79
2023/12/27 03:44:11;;;;;;;21.83;10.40;;;;;;;3.42;100.00;101662.94;6305433;22;20436;-80
2023/12/27 03:46:37;;;;;;;22.23;10.25;;;;;;;3.40;100.00;101660.44;6303972;22;20011;-80
2023/12/27 03:49:02;;;;;;;21.00;10.82;;;;;;;3.39;100.00;101652.66;6305521;22;20011;-80
2023/12/27 03:51:27;;;;;;;21.98;10.23;;;;;;;3.39;100.00;101642.09;6305457;22;20018;-79
2023/12/27 03:53:53;;;;;;;23.08;11.88;;;;;;;3.37;100.00;101641.41;6277930;22;20497;-80
2023/12/27 03:56:18;;;;;;;24.90;12.98;;;;;;;3.28;100.00;101629.91;6305798;22;20038;-80
2023/12/27 03:58:44;;;;;;;23.65;12.20;;;;;;;3.33;100.00;101629.47;6278035;22;20003;-80
2023/12/27 04:01:10;;;;;;;25.00;11.73;;;;;;;3.31;100.00;101626.13;6277954;22;20007;-79
2023/12/27 04:03:35;;;;;;;25.30;11.68;;;;;;;3.40;100.00;101627.88;6277824;22;20014;-79
2023/12/27 04:06:00;;;;;;;24.55;12.25;;;;;;;3.42;100.00;101626.75;6305347;22;20035;-78
2023/12/27 04:08:26;;;;;;;25.30;11.65;;;;;;;3.40;100.00;101612.84;6305300;22;20007;-80
2023/12/27 04:10:51;;;;;;;29.77;13.32;;;;;;;3.49;100.00;101620.91;6305254;22;20018;-79
2023/12/27 04:13:16;;;;;;;32.42;13.15;;;;;;;3.47;100.00;101609.63;6305112;22;20075;-79
2023/12/27 04:15:42;;;;;;;24.33;12.80;;;;;;;3.52;100.00;101610.03;6277790;22;20007;-80
2023/12/27 04:18:11;;;;;;;22.30;12.82;;;;;;;3.51;100.00;101603.06;6305129;22;20003;-80
2023/12/27 04:20:36;;;;;;;28.13;11.98;;;;;;;3.58;100.00;101601.50;6277609;22;20003;-79
2023/12/27 04:23:02;;;;;;;22.80;11.27;;;;;;;3.66;100.00;101609.50;6305424;22;20463;-80
2023/12/27 04:25:27;;;;;;;23.48;12.52;;;;;;;3.66;100.00;101609.50;6279375;22;20030;-80
2023/12/27 04:27:52;;;;;;;22.85;11.15;;;;;;;3.70;100.00;101613.50;6305562;22;20011;-80
2023/12/27 04:30:18;;;;;;;26.70;11.57;;;;;;;3.69;100.00;101599.44;6280858;22;20014;-79
2023/12/27 04:32:43;;;;;;;23.15;12.68;;;;;;;3.77;100.00;101604.00;6281409;22;20003;-79
2023/12/27 04:35:09;;;;;;;23.85;12.90;;;;;;;3.84;100.00;101605.06;6281789;22;20011;-79
2023/12/27 04:37:34;;;;;;;26.48;12.48;;;;;;;3.86;100.00;101600.44;6279912;22;20085;-81
2023/12/27 04:39:59;;;;;;;27.70;11.85;;;;;;;3.86;100.00;101592.50;6306442;22;20010;-78
2023/12/27 04:42:25;;;;;;;21.73;10.88;;;;;;;3.95;100.00;101604.81;6306226;22;20056;-78
2023/12/27 04:44:50;;;;;;;24.20;10.88;;;;;;;3.98;100.00;101608.97;6278905;22;20064;-79
2023/12/27 04:47:16;;;;;;;22.45;10.52;;;;;;;4.01;100.00;101604.19;6279250;22;20056;-79
2023/12/27 04:49:41;;;;;;;20.23;10.38;;;;;;;4.08;100.00;101611.56;6306352;22;20086;-79
2023/12/27 04:52:06;;;;;;;26.48;9.75;;;;;;;4.11;100.00;101609.44;6306220;22;20057;-79
2023/12/27 04:54:32;;;;;;;16.40;9.68;;;;;;;4.16;100.00;101603.69;6278973;22;20094;-78
2023/12/27 04:56:57;;;;;;;19.90;9.50;;;;;;;4.12;100.00;101589.91;6278840;22;20094;-79
2023/12/27 04:59:22;;;;;;;24.48;9.65;;;;;;;4.06;100.00;101587.91;6279074;22;20003;-78
2023/12/27 05:01:49;;;;;;;20.25;9.18;;;;;;;4.13;100.00;101594.22;6306064;22;20441;-78
2023/12/27 05:04:14;;;;;;;18.75;9.18;;;;;;;4.18;100.00;101589.31;6306250;22;20420;-78
2023/12/27 05:06:40;;;;;;;22.10;9.02;;;;;;;4.18;100.00;101575.25;6306222;22;20014;-79
2023/12/27 05:09:05;;;;;;;18.13;9.05;;;;;;;4.13;100.00;101566.94;6278746;22;20007;-79
2023/12/27 05:11:31;;;;;;;21.75;8.80;;;;;;;4.11;100.00;101567.09;6278810;22;20026;-79
2023/12/27 05:13:56;;;;;;;18.77;8.35;;;;;;;4.10;100.00;101572.53;6306483;22;20003;-79
2023/12/27 05:16:22;;;;;;;22.23;9.15;;;;;;;4.11;100.00;101564.44;6306384;22;20003;-80
2023/12/27 05:18:47;;;;;;;22.55;10.07;;;;;;;4.06;100.00;101558.78;6306060;22;20006;-80
2023/12/27 05:21:14;;;;;;;22.33;9.45;;;;;;;4.11;100.00;101559.16;6306225;22;20017;-81
2023/12/27 05:23:39;;;;;;;16.95;8.73;;;;;;;4.11;100.00;101558.31;6278751;22;20010;-82
2023/12/27 05:26:05;;;;;;;15.57;7.50;;;;;;;4.00;100.00;101546.16;6306159;22;20007;-82
2023/12/27 05:28:31;;;;;;;16.67;8.75;;;;;;;4.00;100.00;101551.44;6306196;22;20013;-82
2023/12/27 05:30:56;;;;;;;20.88;9.15;;;;;;;4.03;100.00;101543.19;6306146;22;20081;-82
2023/12/27 05:33:23;;;;;;;20.95;9.45;;;;;;;4.01;100.00;101542.50;6306157;22;20060;-82
2023/12/27 05:35:49;;;;;;;14.95;7.45;;;;;;;4.13;100.00;101557.19;6306020;22;20003;-81
2023/12/27 05:38:14;;;;;;;20.48;9.45;;;;;;;4.08;100.00;101548.03;6306162;22;20479;-80
2023/12/27 05:40:39;;;;;;;21.75;9.25;;;;;;;4.09;100.00;101555.00;6278637;22;20085;-82
2023/12/27 05:43:05;;;;;;;23.50;9.20;;;;;;;4.05;100.00;101535.97;6278633;22;20007;-81
2023/12/27 05:45:30;;;;;;;24.30;10.63;;;;;;;4.07;100.00;101533.16;6306176;22;20010;-81
2023/12/27 05:47:55;;;;;;;25.77;11.50;;;;;;;4.00;100.00;101520.53;6278738;22;20328;-81
2023/12/27 05:50:21;;;;;;;23.38;8.80;;;;;;;4.06;100.00;101510.31;6306063;22;20031;-81
2023/12/27 05:52:47;;;;;;;23.48;9.57;;;;;;;4.03;100.00;101514.09;6306050;22;20011;-81
2023/12/27 05:55:13;;;;;;;23.02;9.25;;;;;;;4.14;100.00;101518.31;6305981;22;20006;-79
2023/12/27 05:57:39;;;;;;;18.98;9.35;;;;;;;4.14;100.00;101510.38;6306081;22;20318;-82
2023/12/27 06:00:06;;;;;;;14.68;7.97;;;;;;;4.13;100.00;101500.78;6306040;22;20003;-83
2023/12/27 06:02:32;;;;;;;23.27;9.75;;;;;;;4.11;100.00;101495.63;6278598;22;20459;-84
2023/12/27 06:04:58;;;;;;;23.23;9.68;;;;;;;4.13;100.00;101492.84;6278647;22;20008;-81
2023/12/27 06:07:23;;;;;;;16.45;7.78;;;;;;;4.18;100.00;101491.38;6278560;22;20003;-82
2023/12/27 06:09:48;;;;;;;26.65;10.18;;;;;;;4.19;100.00;101484.25;6305923;22;20007;-82
2023/12/27 06:12:14;;;;;;;24.73;10.70;;;;;;;4.27;100.00;101489.59;6278623;22;20362;-83
2023/12/27 06:14:39;;;;;;;23.38;9.48;;;;;;;4.27;100.00;101473.72;6306057;22;20328;-83
2023/12/27 06:17:04;;;;;;;20.08;9.88;;;;;;;4.24;100.00;101474.88;6278641;22;20003;-84
2023/12/27 06:19:30;;;;;;;17.40;7.68;;;;;;;4.28;100.00;101470.09;6278570;22;20010;-85
2023/12/27 06:21:56;;;;;;;19.83;9.43;;;;;;;4.19;100.00;101457.81;6305950;22;20090;-85
2023/12/27 06:24:21;;;;;;;20.95;8.93;;;;;;;4.28;100.00;101459.50;6278665;22;20011;-87
2023/12/27 06:26:47;;;;;;;23.80;10.05;;;;;;;4.16;100.00;101439.59;6278786;22;20007;-88
2023/12/27 06:29:12;;;;;;;19.45;9.07;;;;;;;4.39;100.00;101461.88;6305905;22;20518;-86
2023/12/27 06:31:38;;;;;;;23.35;10.02;;;;;;;4.22;100.00;101428.38;6304536;22;20011;-87
2023/12/27 06:34:03;;;;;;;21.27;8.90;;;;;;;4.26;100.00;101419.94;6278943;22;20031;-87
2023/12/27 06:36:29;;;;;;;21.95;10.32;;;;;;;4.28;100.00;101414.50;6278856;22;20014;-90
2023/12/27 06:38:54;;;;;;;22.73;8.32;;;;;;;4.03;100.00;101364.09;6306057;22;20003;-86
2023/12/27 06:41:20;;;;;;;22.25;10.30;;;;;;;4.37;100.00;101421.50;6278521;22;20006;-88
2023/12/27 06:43:47;;;;;;;22.95;10.77;;;;;;;4.32;100.00;101397.31;6278839;22;20007;-87
2023/12/27 06:46:20;;;;;;;18.20;9.80;;;;;;;4.39;100.00;101408.94;6278253;22;20021;-90
2023/12/27 06:48:46;;;;;;;24.48;11.00;;;;;;;4.44;100.00;101419.03;6278792;22;20069;-88
2023/12/27 06:51:18;;;;;;;26.17;10.13;;;;;;;4.53;100.00;101421.56;6278794;22;20086;-91
2023/12/27 06:53:43;;;;;;;23.30;10.38;;;;;;;4.29;100.00;101369.34;6278520;22;20007;-87
2023/12/27 06:56:10;;;;;;;31.65;14.32;;;;;;;4.18;100.00;101345.81;6306013;22;20324;-90
2023/12/27 06:58:36;;;;;;;21.20;11.45;;;;;;;4.17;100.00;101330.09;6278626;22;20007;-90
2023/12/27 07:01:02;;;;;;;25.58;13.15;;;;;;;4.37;100.00;101363.25;6278660;22;20014;-89
2023/12/27 07:03:27;;;;;;;20.73;10.07;;;;;;;4.44;100.00;101369.56;6278424;22;20092;-89
2023/12/27 07:05:53;;;;;;;21.73;10.98;;;;;;;4.75;100.00;101385.69;6278331;22;20008;-87
2023/12/27 07:08:18;;;;;;;19.50;8.82;;;;;;;4.68;100.00;101367.97;6278570;22;20428;-86
2023/12/27 07:10:44;;;;;;;19.20;10.05;;;;;;;4.84;100.00;101391.81;6278367;22;20003;-87
2023/12/27 07:13:09;;;;;;;17.33;9.13;;;;;;;4.73;100.00;101368.31;6278513;22;20113;-92
2023/12/27 07:15:35;;;;;;;16.20;8.98;;;;;;;4.90;100.00;101385.88;6305711;22;20055;-85
2023/12/27 07:18:01;;;;;;;21.00;9.77;;;;;;;4.70;100.00;101356.22;6278230;22;20382;-85
2023/12/27 07:20:27;;;;;;;19.42;10.27;;;;;;;4.63;100.00;101334.88;6305823;22;20526;-86
2023/12/27 07:22:52;;;;;;;16.67;9.85;;;;;;;4.80;100.00;101358.72;6278085;22;20038;-85
2023/12/27 07:25:18;;;;;;;17.33;10.70;;;;;;;5.05;100.00;101394.84;6305755;22;20026;-84
2023/12/27 07:27:43;;;;;;;20.35;10.82;;;;;;;4.94;100.00;101363.38;6278319;22;20006;-83
2023/12/27 07:30:09;;;;;;;16.40;8.65;;;;;;;5.10;100.00;101376.63;6278131;22;20106;-84
2023/12/27 07:32:34;;;;;;;20.65;10.00;;;;;;;5.16;100.00;101381.25;6278215;22;20494;-82
2023/12/27 07:34:59;;;;;;;20.45;10.38;;;;;;;5.16;100.00;101370.66;6305648;22;20003;-85
2023/12/27 07:37:25;;;;;;;16.88;10.25;;;;;;;5.21;100.00;101378.97;6278416;22;20428;-83
2023/12/27 07:39:50;;;;;;;19.65;11.35;;;;;;;5.22;100.00;101372.66;6305610;22;20133;-84
2023/12/27 07:42:16;;;;;;;15.80;10.68;;;;;;;5.21;100.00;101368.38;6278194;22;20084;-83
2023/12/27 07:44:41;;;;;;;22.15;12.45;;;;;;;5.26;100.00;101376.63;6278283;22;20022;-84
2023/12/27 07:47:07;;;;;;;26.48;15.38;;;;;;;5.32;100.00;101384.91;6278231;22;20006;-83
2023/12/27 07:49:32;;;;;;;24.08;12.98;;;;;;;5.31;100.00;101368.19;6278313;22;20463;-83
2023/12/27 07:51:58;;;;;;;24.10;13.18;;;;;;;5.39;100.00;101380.59;6278197;22;20011;-84
2023/12/27 07:54:23;;;;;;;19.77;10.95;;;;;;;5.34;100.00;101354.59;6278143;22;20094;-83
2023/12/27 07:56:48;;;;;;;23.77;15.15;;;;;;;5.33;100.00;101322.94;6305392;22;20053;-84
2023/12/27 07:59:14;;;;;;;21.27;12.25;;;;;;;5.44;100.00;101335.84;6304044;22;20015;-84
2023/12/27 08:01:39;;;;;;;25.08;12.93;;;;;;;5.39;100.00;101316.97;6277839;22;20003;-83
2023/12/27 08:04:05;;;;;;;28.20;15.30;;;;;;;5.53;100.00;101342.81;6278226;22;20011;-83
2023/12/27 08:06:30;;;;;;;21.42;12.02;;;;;;;5.59;100.00;101347.44;6278104;22;19999;-83
2023/12/27 08:08:56;;;;;;;26.35;13.45;;;;;;;5.43;100.00;101318.28;6278034;22;20332;-83
2023/12/27 08:11:22;;;;;;;26.05;12.50;;;;;;;5.61;100.00;101348.09;6278330;22;20381;-83
2023/12/27 08:13:47;;;;;;;27.35;16.23;;;;;;;5.81;100.00;101360.00;6277932;22;20011;-83
2023/12/27 08:16:12;;;;;;;25.70;13.43;;;;;;;5.63;100.00;101321.41;6305361;22;19995;-84
2023/12/27 08:18:38;;;;;;;27.52;12.80;;;;;;;5.65;100.00;101322.88;6277923;22;20007;-83
2023/12/27 08:21:04;;;;;;;23.80;12.45;;;;;;;5.84;100.00;101341.06;6278053;22;20007;-84
2023/12/27 08:23:30;;;;;;;25.67;15.05;;;;;;;5.90;100.00;101327.16;6277896;22;20014;-83
2023/12/27 08:25:56;;;;;;;27.95;16.85;;;;;;;6.09;100.00;101346.31;6277766;22;20000;-83
2023/12/27 08:28:23;;;;;;;25.98;12.80;;;;;;;5.98;100.00;101314.84;6278036;22;20011;-82
2023/12/27 08:30:48;;;;;;;25.65;12.70;;;;;;;6.07;100.00;101324.41;6277877;22;20011;-83
2023/12/27 08:33:15;;;;;;;24.33;12.27;;;;;;;6.09;100.00;101303.84;6277793;22;20009;-83
2023/12/27 08:35:40;;;;;;;21.30;11.30;;;;;;;6.15;100.00;101308.47;6277794;22;20007;-82
2023/12/27 08:38:06;;;;;;;20.42;9.82;;;;;;;6.16;100.00;101304.81;6305266;22;20459;-82
2023/12/27 08:40:31;;;;;;;27.05;12.52;;;;;;;6.25;100.00;101311.72;6305206;22;20011;-81
2023/12/27 08:43:00;;;;;;;19.35;10.95;;;;;;;6.27;100.00;101312.38;6277790;22;20003;-81
2023/12/27 08:45:28;;;;;;;29.02;11.75;;;;;;;6.15;100.00;101284.56;6277646;22;20007;-80
2023/12/27 08:47:53;;;;;;;16.92;9.25;;;;;;;6.37;100.00;101312.19;6305021;22;20432;-82
2023/12/27 08:50:19;;;;;;;21.45;9.73;;;;;;;6.19;100.00;101284.03;6305012;22;20058;-82
2023/12/27 08:52:44;;;;;;;24.27;13.98;;;;;;;6.40;100.00;101307.34;6277570;22;20494;-82
2023/12/27 08:55:12;;;;;;;14.10;7.28;;;;;;;6.48;100.00;101296.66;6277769;22;20014;-81
2023/12/27 08:57:38;;;;;;;23.77;12.77;;;;;;;6.55;100.00;101277.34;6277963;22;20003;-82
2023/12/27 09:00:10;;;;;;;18.83;9.73;;;;;;;6.55;100.00;101274.69;6277388;22;20007;-82
2023/12/27 09:02:39;;;;;;;16.02;9.38;;;;;;;6.56;100.00;101286.97;6304811;22;20065;-81
2023/12/27 09:05:08;;;;;;;14.75;7.90;;;;;;;6.64;100.00;101286.91;6304844;22;20007;-83
2023/12/27 09:07:33;;;;;;;16.00;8.45;;;;;;;6.68;100.00;101282.91;6305109;22;20053;-81
2023/12/27 09:09:59;;;;;;;11.15;6.65;;;;;;;6.63;100.00;101267.47;6305243;22;20007;-80
2023/12/27 09:12:25;;;;;;;13.30;8.02;;;;;;;6.77;100.00;101279.19;6278867;22;20086;-81
2023/12/27 09:14:54;;;;;;;13.77;7.60;;;;;;;6.76;100.00;101291.63;6278879;22;20479;-83
2023/12/27 09:17:19;;;;;;;10.73;6.57;;;;;;;6.77;100.00;101298.59;6278943;22;20007;-83
2023/12/27 09:19:44;;;;;;;10.07;6.07;;;;;;;6.73;100.00;101267.25;6306353;22;20324;-82
2023/12/27 09:22:16;;;;;;;9.85;6.18;;;;;;;6.79;100.00;101266.53;6306360;22;20034;-82
2023/12/27 09:24:41;;;;;;;15.25;9.30;;;;;;;6.76;100.00;101259.75;6306308;22;20467;-83
2023/12/27 09:27:07;;;;;;;13.10;8.65;;;;;;;6.74;100.00;101264.41;6278610;22;20034;-82
2023/12/27 09:29:32;;;;;;;11.32;7.22;;;;;;;6.78;100.00;101264.88;6278919;22;20011;-81
2023/12/27 09:31:58;;;;;;;12.13;8.00;;;;;;;6.73;100.00;101253.97;6278831;22;20374;-82
2023/12/27 09:34:23;;;;;;;13.93;6.53;;;;;;;6.79;100.00;101269.19;6306513;22;20308;-81
2023/12/27 09:36:48;;;;;;;10.75;6.30;;;;;;;6.80;100.00;101255.72;6278977;22;20090;-81
2023/12/27 09:39:14;;;;;;;12.93;9.13;;;;;;;6.80;100.00;101252.25;6306421;22;20037;-80
2023/12/27 09:41:40;;;;;;;10.40;7.10;;;;;;;6.79;100.00;101247.94;6305997;22;20325;-81
2023/12/27 09:44:12;;;;;;;12.35;7.38;;;;;;;6.78;100.00;101251.59;6278845;22;20015;-83
2023/12/27 09:46:39;;;;;;;10.23;6.57;;;;;;;6.81;100.00;101236.13;6278710;22;20007;-83
2023/12/27 09:49:08;;;;;;;13.27;6.63;;;;;;;6.82;100.00;101236.94;6306128;22;20006;-81
2023/12/27 09:51:35;;;;;;;14.30;8.07;;;;;;;6.84;100.00;101240.25;6306256;22;20011;-81
2023/12/27 09:54:00;;;;;;;8.35;5.38;;;;;;;6.94;100.00;101247.94;6306078;22;20078;-87
2023/12/27 09:56:28;;;;;;;10.05;6.57;;;;;;;6.94;100.00;101250.59;6278637;22;20373;-80
2023/12/27 09:58:59;;;;;;;10.85;7.40;;;;;;;6.96;100.00;101257.44;6306063;22;20009;-82
2023/12/27 10:01:25;;;;;;;11.73;6.72;;;;;;;6.95;100.00;101246.97;6278566;22;20007;-84
2023/12/27 10:04:05;;;;;;;7.93;5.65;;;;;;;7.00;100.00;101245.44;6305987;22;20003;-84
2023/12/27 10:06:47;;;;;;;11.02;6.10;;;;;;;7.02;100.00;101247.91;6306090;22;20086;-83
2023/12/27 10:09:13;;;;;;;11.55;5.95;;;;;;;7.08;100.00;101255.97;6305992;22;20070;-82
2023/12/27 10:11:42;;;;;;;8.93;5.85;;;;;;;7.14;100.00;101247.25;6305970;22;20007;-83
2023/12/27 10:14:09;;;;;;;7.65;5.03;;;;;;;7.09;100.00;101225.72;6278618;22;20366;-81
2023/12/27 10:16:36;;;;;;;9.50;6.10;;;;;;;7.19;100.00;101228.09;6305987;22;20030;-81
2023/12/27 10:19:04;;;;;;;8.63;5.10;;;;;;;7.27;100.00;101235.19;6305759;22;20003;-80
2023/12/27 10:21:42;;;;;;;7.10;4.88;;;;;;;7.32;100.00;101249.59;6277685;22;20018;-83
2023/12/27 10:24:07;;;;;;;8.75;4.63;;;;;;;7.30;100.00;101229.50;6278715;22;20003;-80
2023/12/27 10:26:34;;;;;;;8.18;5.60;;;;;;;7.36;100.00;101223.44;6305803;22;20375;-83
2023/12/27 10:29:02;;;;;;;6.95;3.75;;;;;;;7.43;100.00;101219.03;6278431;22;20007;-84
2023/12/27 10:31:28;;;;;;;6.43;3.88;;;;;;;7.41;100.00;101211.25;6278668;22;20378;-85
2023/12/27 10:33:54;;;;;;;8.63;4.10;;;;;;;7.59;100.00;101226.84;6278609;22;20039;-82
2023/12/27 10:36:25;;;;;;;5.30;4.57;;;;;;;7.60;100.00;101217.00;6278485;22;20128;-84
2023/12/27 10:38:51;;;;;;;7.70;4.20;;;;;;;7.73;100.00;101228.63;6278576;22;20003;-80
2023/12/27 10:41:16;;;;;;;7.43;4.10;;;;;;;7.67;100.00;101207.28;6305984;22;20320;-81
2023/12/27 10:43:42;;;;;;;4.93;3.60;;;;;;;7.82;100.00;101221.41;6277682;22;20340;-80
2023/12/27 10:46:16;;;;;;;5.43;3.47;;;;;;;7.81;100.00;101203.78;6305799;22;20003;-80
2023/12/27 10:48:51;;;;;;;10.68;3.67;;;;;;;7.92;100.00;101224.56;6278875;22;20000;-80
2023/12/27 10:51:19;;;;;;;9.98;3.55;;;;;;;7.94;100.00;101227.06;6278663;22;20090;-83
2023/12/27 10:53:49;;;;;;;5.85;3.25;;;;;;;7.98;100.00;101217.66;6278498;22;20003;-81
2023/12/27 10:56:19;;;;;;;7.47;3.35;;;;;;;7.93;100.00;101212.09;6278704;22;20078;-80
2023/12/27 10:58:51;;;;;;;7.80;3.83;;;;;;;7.98;100.00;101212.34;6278378;22;20010;-80
2023/12/27 11:01:17;;;;;;;4.53;2.75;;;;;;;7.97;100.00;101200.03;6278330;22;20003;-80
2023/12/27 11:03:46;;;;;;;6.38;3.30;;;;;;;7.95;100.00;101202.91;6278482;22;20015;-80
2023/12/27 11:06:13;;;;;;;10.55;4.20;;;;;;;7.99;100.00;101190.84;6278617;22;20344;-80
2023/12/27 11:08:40;;;;;;;8.52;3.78;;;;;;;8.01;100.00;101174.69;6306067;22;20003;-78
2023/12/27 11:11:08;;;;;;;8.85;3.72;;;;;;;7.98;100.00;101154.59;6306030;22;20007;-80